Terminal Aerodrome Forecast
Issued by NWS Sterling, VA

Current Version | Previous Version | Graphics & Text | Print | Product List | Glossary On
Versions: 1 2 3 4 5 6 7 8 9 10 11 12 13 14 15 16 17 18 19 20 21 22 23 24 25
000
FTUS41 KLWX 151700
TAFMRB
TAF
KMRB 151739Z 1518/1618 29006KT P6SM FEW028
     FM160500 14004KT P6SM BKN150
     FM161200 16005KT P6SM -SHRA BKN025
     FM161500 15006KT P6SM -SHRA OVC020=

USA.gov is the U.S. government's official web portal to all federal, state and local government web resources and services.